createdAt,value
2022-09-06T00:00:30.297Z,54.21
2022-09-06T00:03:31.909Z,54.14
2022-09-06T00:06:33.990Z,54.13
2022-09-06T00:09:35.660Z,54.03
2022-09-06T00:12:38.060Z,53.99
2022-09-06T00:15:39.763Z,53.93
2022-09-06T00:18:42.901Z,53.97
2022-09-06T00:21:44.491Z,54.05
2022-09-06T00:24:46.181Z,54.08
2022-09-06T00:27:47.749Z,53.99
2022-09-06T00:30:49.335Z,54.08
2022-09-06T00:33:51.276Z,54.22
2022-09-06T00:36:53.409Z,54.19
2022-09-06T00:39:54.985Z,54.18
2022-09-06T00:42:57.628Z,54.16
2022-09-06T00:46:00.735Z,54.05
2022-09-06T00:49:06.772Z,54.04
2022-09-06T00:52:13.073Z,54.10
2022-09-06T00:55:15.365Z,54.03
2022-09-06T00:58:16.931Z,54.08
2022-09-06T01:01:18.629Z,54.16
2022-09-06T01:04:20.513Z,54.30
2022-09-06T01:07:50.844Z,54.15
2022-09-06T01:10:59.103Z,54.27
2022-09-06T01:14:50.246Z,54.27
2022-09-06T01:18:09.790Z,54.41
2022-09-06T01:21:33.180Z,54.26
2022-09-06T01:24:49.808Z,54.23
2022-09-06T01:27:57.374Z,54.24
2022-09-06T01:31:24.960Z,54.10
2022-09-06T01:34:41.899Z,54.01
2022-09-06T01:37:44.099Z,53.95
2022-09-06T01:40:45.722Z,53.94
2022-09-06T01:43:51.598Z,53.85
2022-09-06T01:47:13.875Z,53.95
2022-09-06T01:50:47.131Z,54.00
2022-09-06T01:54:23.429Z,53.88
2022-09-06T01:57:40.915Z,53.89
2022-09-06T02:01:07.605Z,53.84
2022-09-06T02:04:31.298Z,53.89
2022-09-06T02:07:35.331Z,54.00
2022-09-06T02:10:42.409Z,54.06
2022-09-06T02:13:51.860Z,54.01
2022-09-06T02:16:55.867Z,53.90
2022-09-06T02:20:09.342Z,53.90
2022-09-06T02:23:11.993Z,53.89
2022-09-06T02:26:25.005Z,53.75
2022-09-06T02:29:26.811Z,53.74
2022-09-06T02:32:29.908Z,53.82
2022-09-06T02:35:31.983Z,53.80
2022-09-06T02:38:36.035Z,53.86
2022-09-06T02:41:40.329Z,53.71
2022-09-06T02:44:41.853Z,53.87
2022-09-06T02:47:43.468Z,53.86
2022-09-06T02:50:45.058Z,53.60
2022-09-06T02:53:46.945Z,53.65
2022-09-06T02:56:52.128Z,53.77
2022-09-06T02:59:54.045Z,53.81
2022-09-06T03:02:56.028Z,53.75
2022-09-06T03:05:57.656Z,53.84
2022-09-06T03:08:59.620Z,53.87
2022-09-06T03:12:01.328Z,54.00
2022-09-06T03:15:04.197Z,53.89
2022-09-06T03:18:05.787Z,54.03
2022-09-06T03:21:07.603Z,54.05
2022-09-06T03:24:09.152Z,54.21
2022-09-06T03:27:10.645Z,54.16
2022-09-06T03:30:12.686Z,54.13
2022-09-06T03:33:14.920Z,54.07
2022-09-06T03:36:16.819Z,53.86
2022-09-06T03:39:18.373Z,54.05
2022-09-06T03:42:20.190Z,54.02
2022-09-06T03:45:22.157Z,54.02
2022-09-06T03:48:26.020Z,54.10
2022-09-06T03:51:27.619Z,54.10
2022-09-06T03:54:29.144Z,54.14
2022-09-06T03:57:30.766Z,54.16
2022-09-06T04:00:33.026Z,54.11
2022-09-06T04:03:35.190Z,53.98
2022-09-06T04:06:36.789Z,53.80
2022-09-06T04:09:38.430Z,53.97
2022-09-06T04:12:39.969Z,54.19
2022-09-06T04:15:46.926Z,54.39
2022-09-06T04:18:48.623Z,54.34
2022-09-06T04:21:50.202Z,54.32
2022-09-06T04:24:51.946Z,54.30
2022-09-06T04:27:53.538Z,54.30
2022-09-06T04:31:04.328Z,54.33
2022-09-06T04:34:06.662Z,54.52
2022-09-06T04:37:08.198Z,54.39
2022-09-06T04:40:10.252Z,54.28
2022-09-06T04:43:11.968Z,54.36
2022-09-06T04:46:16.408Z,54.51
2022-09-06T04:49:18.064Z,54.62
2022-09-06T04:52:19.604Z,54.73
2022-09-06T04:55:21.162Z,54.94
2022-09-06T04:58:22.801Z,54.77
2022-09-06T05:01:25.671Z,54.67
2022-09-06T05:04:27.341Z,54.68
2022-09-06T05:07:28.881Z,54.61
2022-09-06T05:10:30.432Z,54.66
2022-09-06T05:13:32.597Z,54.74
2022-09-06T05:16:34.145Z,54.83
2022-09-06T05:19:35.699Z,54.90
2022-09-06T05:22:37.963Z,55.04
2022-09-06T05:25:39.424Z,55.22
2022-09-06T05:28:41.003Z,55.33
2022-09-06T05:31:42.793Z,55.33
2022-09-06T05:34:44.624Z,55.46
2022-09-06T05:37:46.178Z,55.24
2022-09-06T05:40:47.769Z,55.27
2022-09-06T05:43:49.511Z,55.28
2022-09-06T05:46:51.854Z,55.14
2022-09-06T05:49:53.802Z,55.32
2022-09-06T05:52:55.509Z,55.28
2022-09-06T05:55:57.176Z,55.06
2022-09-06T05:58:58.844Z,54.83
2022-09-06T06:02:03.222Z,54.83
2022-09-06T06:05:07.587Z,54.61
2022-09-06T06:08:09.117Z,54.57
2022-09-06T06:11:11.489Z,54.58
2022-09-06T06:14:13.198Z,54.43
2022-09-06T06:17:15.696Z,54.23
2022-09-06T06:20:17.500Z,54.02
2022-09-06T06:23:19.270Z,54.17
2022-09-06T06:26:21.802Z,54.42
2022-09-06T06:29:24.751Z,54.10
2022-09-06T06:32:28.947Z,53.93
2022-09-06T06:35:35.179Z,53.90
2022-09-06T06:38:42.462Z,53.83
2022-09-06T06:41:45.765Z,53.72
2022-09-06T06:45:01.737Z,53.58
2022-09-06T06:48:04.479Z,53.57
2022-09-06T06:51:12.370Z,53.37
2022-09-06T06:54:14.597Z,53.50
2022-09-06T06:57:18.633Z,53.57
2022-09-06T07:00:46.132Z,53.66
2022-09-06T07:03:58.887Z,53.73
2022-09-06T07:13:36.606Z,54.02
2022-09-06T07:16:38.627Z,54.18
2022-09-06T07:26:30.058Z,54.15
2022-09-06T07:29:31.918Z,54.18
2022-09-06T07:32:34.442Z,54.14
2022-09-06T07:35:36.404Z,54.30
2022-09-06T07:38:38.401Z,54.44
2022-09-06T07:41:39.978Z,54.64
2022-09-06T07:44:41.565Z,54.65
2022-09-06T07:47:58.495Z,54.56
2022-09-06T07:51:20.768Z,54.37
2022-09-06T07:54:31.041Z,54.34
2022-09-06T07:57:33.040Z,54.25
2022-09-06T08:00:34.790Z,54.52
2022-09-06T08:03:36.367Z,54.74
2022-09-06T08:10:02.589Z,54.67
2022-09-06T08:13:04.131Z,54.42
2022-09-06T08:16:08.422Z,53.95
2022-09-06T08:19:11.762Z,53.78
2022-09-06T08:22:13.284Z,53.65
2022-09-06T08:25:14.947Z,53.21
2022-09-06T08:28:16.556Z,52.80
2022-09-06T08:31:19.160Z,52.70
2022-09-06T08:34:21.129Z,52.87
2022-09-06T08:37:25.065Z,52.97
2022-09-06T08:40:26.855Z,53.03
2022-09-06T08:43:28.830Z,52.77
2022-09-06T08:46:38.599Z,52.33
2022-09-06T08:49:54.028Z,52.51
2022-09-06T08:53:18.465Z,52.08
2022-09-06T08:56:33.604Z,51.84
2022-09-06T08:59:40.263Z,51.49
2022-09-06T09:02:45.551Z,51.18
2022-09-06T09:05:52.015Z,50.89
2022-09-06T09:09:03.324Z,50.52
2022-09-06T09:12:05.833Z,49.96
2022-09-06T09:15:12.093Z,49.74
2022-09-06T09:18:20.051Z,49.05
2022-09-06T09:21:28.156Z,48.54
2022-09-06T09:24:32.162Z,48.06
2022-09-06T09:27:37.950Z,47.61
2022-09-06T09:30:52.165Z,47.23
2022-09-06T09:33:53.687Z,47.20
2022-09-06T09:40:48.511Z,46.44
2022-09-06T09:44:05.019Z,45.95
2022-09-06T09:47:24.047Z,45.84
2022-09-06T09:50:27.842Z,45.48
2022-09-06T09:53:29.465Z,45.37
2022-09-06T09:56:34.132Z,44.90
2022-09-06T09:59:35.680Z,44.48
2022-09-06T10:02:42.298Z,44.21
2022-09-06T10:06:02.241Z,44.16
2022-09-06T10:09:22.163Z,43.89
2022-09-06T10:12:35.377Z,43.61
2022-09-06T10:15:39.516Z,43.58
2022-09-06T10:18:43.544Z,43.36
2022-09-06T10:21:45.186Z,43.22
2022-09-06T10:24:55.636Z,42.85
2022-09-06T10:28:29.595Z,42.39
2022-09-06T10:31:39.625Z,42.16
2022-09-06T10:35:05.292Z,41.70
2022-09-06T10:38:37.990Z,41.51
2022-09-06T10:42:10.944Z,41.38
2022-09-06T10:45:44.614Z,41.36
2022-09-06T10:48:47.321Z,41.73
2022-09-06T10:51:59.842Z,41.61
2022-09-06T10:55:04.995Z,41.00
2022-09-06T10:58:19.047Z,40.90
2022-09-06T11:01:29.980Z,41.00
2022-09-06T11:11:54.271Z,40.59
2022-09-06T11:14:56.100Z,40.18
2022-09-06T11:18:12.557Z,40.23
2022-09-06T11:21:32.444Z,39.90
2022-09-06T11:25:14.814Z,39.61
2022-09-06T11:28:23.923Z,39.39
2022-09-06T11:34:54.255Z,39.13
2022-09-06T11:38:02.142Z,38.93
2022-09-06T11:41:12.445Z,39.18
2022-09-06T11:44:48.965Z,39.17
2022-09-06T11:47:52.273Z,38.82
2022-09-06T11:50:53.997Z,38.77
2022-09-06T11:54:02.887Z,38.52
2022-09-06T11:57:07.307Z,38.59
2022-09-06T12:00:19.631Z,38.73
2022-09-06T12:04:06.019Z,38.74
2022-09-06T12:07:11.787Z,38.85
2022-09-06T12:10:49.148Z,38.91
2022-09-06T12:14:16.593Z,38.45
2022-09-06T12:17:20.227Z,38.76
2022-09-06T12:20:52.267Z,38.84
2022-09-06T12:23:53.840Z,39.02
2022-09-06T12:27:15.717Z,39.21
2022-09-06T12:30:41.563Z,39.06
2022-09-06T12:33:44.529Z,39.42
2022-09-06T12:36:50.276Z,39.86
2022-09-06T12:39:58.971Z,39.73
2022-09-06T12:43:03.754Z,40.38
2022-09-06T12:46:07.441Z,40.46
2022-09-06T12:49:11.580Z,40.66
2022-09-06T12:52:18.386Z,41.04
2022-09-06T12:55:36.591Z,40.85
2022-09-06T12:58:38.958Z,41.36
2022-09-06T13:01:48.796Z,41.91
2022-09-06T13:04:54.526Z,42.35
2022-09-06T13:08:00.332Z,42.12
2022-09-06T13:11:03.849Z,42.25
2022-09-06T13:14:14.806Z,42.21
2022-09-06T13:17:28.046Z,42.28
2022-09-06T13:20:30.893Z,42.12
2022-09-06T13:23:47.763Z,42.60
2022-09-06T13:26:50.401Z,42.72
2022-09-06T13:30:06.692Z,42.49
2022-09-06T13:33:23.621Z,42.27
2022-09-06T13:36:33.162Z,42.32
2022-09-06T13:39:39.198Z,42.33
2022-09-06T13:42:41.013Z,42.35
2022-09-06T13:45:43.718Z,42.54
2022-09-06T13:48:45.345Z,42.89
2022-09-06T13:51:46.875Z,42.63
2022-09-06T13:54:48.446Z,43.05
2022-09-06T13:57:50.421Z,43.04
2022-09-06T14:00:53.408Z,42.46
2022-09-06T14:03:55.023Z,42.31
2022-09-06T14:06:56.883Z,42.41
2022-09-06T14:10:00.450Z,42.22
2022-09-06T14:13:02.159Z,42.12
2022-09-06T14:16:04.760Z,42.12
2022-09-06T14:19:06.448Z,42.30
2022-09-06T14:22:08.021Z,42.02
2022-09-06T14:25:10.409Z,41.85
2022-09-06T14:28:12.265Z,41.79
2022-09-06T14:31:19.909Z,42.26
2022-09-06T14:34:21.604Z,42.06
2022-09-06T14:37:23.382Z,41.83
2022-09-06T14:40:26.196Z,41.80
2022-09-06T14:43:29.415Z,41.67
2022-09-06T14:46:33.372Z,41.57
2022-09-06T14:49:35.553Z,41.31
2022-09-06T14:52:37.005Z,41.52
2022-09-06T14:55:39.081Z,41.93
2022-09-06T14:58:40.992Z,41.80
2022-09-06T15:01:43.686Z,42.19
2022-09-06T15:04:45.662Z,41.92
2022-09-06T15:07:47.348Z,41.73
2022-09-06T15:10:53.612Z,41.92
2022-09-06T15:13:56.280Z,41.93
2022-09-06T15:16:59.377Z,41.81
2022-09-06T15:20:01.307Z,41.87
2022-09-06T15:23:24.429Z,42.07
2022-09-06T15:26:25.425Z,41.97
2022-09-06T15:29:26.957Z,42.18
2022-09-06T15:32:28.812Z,42.49
2022-09-06T15:35:30.734Z,42.76
2022-09-06T15:38:37.717Z,42.61
2022-09-06T15:41:40.601Z,42.82
2022-09-06T15:44:42.317Z,42.96
2022-09-06T15:47:43.923Z,43.18
2022-09-06T15:50:51.730Z,43.52
2022-09-06T15:53:53.604Z,43.35
2022-09-06T15:56:57.485Z,43.59
2022-09-06T15:59:59.649Z,43.93
2022-09-06T16:03:01.600Z,44.03
2022-09-06T16:09:27.745Z,44.32
2022-09-06T16:12:29.251Z,44.54
2022-09-06T16:15:30.771Z,44.61
2022-09-06T16:18:38.337Z,44.94
2022-09-06T16:21:43.555Z,45.11
2022-09-06T16:24:45.247Z,45.06
2022-09-06T16:27:46.862Z,45.32
2022-09-06T16:30:48.461Z,45.62
2022-09-06T16:33:50.837Z,45.78
2022-09-06T16:36:53.304Z,46.02
2022-09-06T16:39:55.421Z,46.07
2022-09-06T16:42:57.132Z,46.16
2022-09-06T16:46:00.866Z,46.47
2022-09-06T16:49:05.377Z,46.38
2022-09-06T16:52:09.131Z,46.49
2022-09-06T16:55:10.707Z,46.69
2022-09-06T16:58:12.865Z,47.00
2022-09-06T17:01:15.229Z,47.01
2022-09-06T17:04:18.088Z,47.21
2022-09-06T17:07:19.714Z,47.41
2022-09-06T17:10:21.333Z,47.46
2022-09-06T17:13:22.820Z,47.74
2022-09-06T17:16:43.469Z,47.96
2022-09-06T17:19:45.044Z,48.16
2022-09-06T17:22:50.302Z,48.22
2022-09-06T17:25:52.358Z,48.22
2022-09-06T17:28:54.269Z,48.33
2022-09-06T17:31:56.670Z,48.38
2022-09-06T17:34:58.938Z,48.50
2022-09-06T17:38:01.094Z,48.62
2022-09-06T17:41:03.388Z,48.69
2022-09-06T17:44:05.872Z,48.75
2022-09-06T17:47:12.805Z,48.95
2022-09-06T17:50:17.045Z,49.03
2022-09-06T17:53:18.810Z,48.86
2022-09-06T17:56:21.209Z,49.01
2022-09-06T17:59:22.881Z,49.26
2022-09-06T18:02:25.002Z,49.26
2022-09-06T18:05:26.995Z,49.25
2022-09-06T18:08:28.788Z,49.18
2022-09-06T18:11:32.959Z,49.28
2022-09-06T18:14:34.714Z,49.11
2022-09-06T18:17:36.498Z,49.16
2022-09-06T18:20:38.312Z,49.42
2022-09-06T18:23:40.067Z,49.53
2022-09-06T18:26:42.745Z,49.56
2022-09-06T18:29:44.330Z,49.52
2022-09-06T18:32:46.575Z,49.68
2022-09-06T18:35:49.644Z,49.47
2022-09-06T18:38:51.478Z,49.55
2022-09-06T18:41:59.530Z,49.58
2022-09-06T18:45:01.468Z,49.85
2022-09-06T18:48:06.972Z,49.86
2022-09-06T18:51:15.821Z,49.87
2022-09-06T18:54:19.244Z,49.78
2022-09-06T18:57:21.476Z,49.95
2022-09-06T19:00:25.299Z,50.09
2022-09-06T19:03:28.227Z,50.14
2022-09-06T19:06:31.758Z,50.28
2022-09-06T19:09:33.600Z,50.36
2022-09-06T19:12:35.660Z,50.53
2022-09-06T19:15:40.091Z,50.56
2022-09-06T19:18:41.666Z,50.66
2022-09-06T19:21:44.015Z,50.59
2022-09-06T19:24:45.533Z,50.55
2022-09-06T19:27:48.877Z,50.63
2022-09-06T19:30:51.423Z,50.72
2022-09-06T19:33:55.029Z,50.75
2022-09-06T19:36:56.707Z,50.76
2022-09-06T19:39:58.391Z,50.82
2022-09-06T19:43:00.027Z,50.89
2022-09-06T19:46:04.020Z,50.82
2022-09-06T19:49:07.570Z,50.99
2022-09-06T19:52:29.690Z,50.83
2022-09-06T19:55:33.024Z,50.94
2022-09-06T19:58:36.386Z,50.98
2022-09-06T20:01:40.991Z,50.88
2022-09-06T20:04:46.155Z,50.79
2022-09-06T20:07:48.964Z,50.70
2022-09-06T20:10:58.858Z,50.78
2022-09-06T20:14:00.949Z,50.65
2022-09-06T20:17:29.679Z,50.50
2022-09-06T20:20:25.526Z,50.39
2022-09-06T20:23:33.426Z,50.05
2022-09-06T20:26:35.662Z,50.05
2022-09-06T20:29:37.334Z,50.28
2022-09-06T20:32:39.708Z,50.36
2022-09-06T20:36:13.637Z,50.39
2022-09-06T20:39:15.200Z,50.34
2022-09-06T20:42:23.430Z,50.37
2022-09-06T20:45:27.003Z,50.17
2022-09-06T20:48:33.009Z,50.13
2022-09-06T20:51:42.539Z,50.17
2022-09-06T20:54:49.582Z,50.15
2022-09-06T20:57:51.137Z,50.10
2022-09-06T21:00:53.357Z,49.85
2022-09-06T21:03:58.748Z,49.97
2022-09-06T21:07:02.969Z,49.93
2022-09-06T21:10:10.527Z,49.97
2022-09-06T21:13:15.881Z,49.99
2022-09-06T21:16:24.283Z,50.30
2022-09-06T21:19:26.115Z,50.35
2022-09-06T21:22:27.776Z,50.19
2022-09-06T21:25:29.557Z,50.27
2022-09-06T21:28:36.051Z,50.23
2022-09-06T21:31:37.849Z,50.10
2022-09-06T21:34:39.998Z,50.02
2022-09-06T21:37:41.637Z,49.85
2022-09-06T21:40:43.371Z,49.72
2022-09-06T21:43:45.949Z,49.52
2022-09-06T21:46:47.671Z,49.50
2022-09-06T21:49:49.262Z,49.36
2022-09-06T21:52:51.743Z,49.01
2022-09-06T21:55:59.433Z,48.88
2022-09-06T21:59:01.548Z,48.79
2022-09-06T22:02:03.166Z,48.72
2022-09-06T22:05:06.005Z,48.53
2022-09-06T22:08:07.623Z,48.47
2022-09-06T22:11:24.659Z,48.31
2022-09-06T22:14:26.303Z,48.24
2022-09-06T22:17:27.907Z,48.17
2022-09-06T22:20:29.564Z,48.33
2022-09-06T22:23:31.887Z,48.34
2022-09-06T22:26:35.994Z,48.14
2022-09-06T22:29:37.608Z,48.14
2022-09-06T22:32:39.547Z,47.92
2022-09-06T22:35:41.165Z,47.85
2022-09-06T22:38:43.057Z,47.68
2022-09-06T22:41:45.021Z,47.52
2022-09-06T22:44:46.700Z,47.38
2022-09-06T22:47:50.394Z,47.24
2022-09-06T22:50:52.014Z,47.13
2022-09-06T22:53:53.780Z,47.02
2022-09-06T22:56:55.409Z,46.87
2022-09-06T22:59:57.488Z,47.23
2022-09-06T23:02:59.132Z,47.32
2022-09-06T23:06:01.999Z,47.02
2022-09-06T23:09:04.364Z,47.11
2022-09-06T23:12:06.108Z,46.79
2022-09-06T23:15:08.218Z,46.55
2022-09-06T23:18:09.842Z,46.54
2022-09-06T23:21:15.092Z,46.54
2022-09-06T23:24:16.735Z,46.57
2022-09-06T23:27:18.394Z,46.75
2022-09-06T23:30:20.048Z,46.81
2022-09-06T23:33:21.768Z,46.83
2022-09-06T23:36:24.280Z,46.61
2022-09-06T23:39:27.555Z,46.48
2022-09-06T23:42:29.222Z,46.17
2022-09-06T23:45:30.858Z,46.13
2022-09-06T23:48:33.455Z,45.98
2022-09-06T23:51:35.043Z,45.90
2022-09-06T23:54:36.683Z,45.60
2022-09-06T23:57:38.378Z,45.46
